Weather observations for the past three days for
Wilmington, Airborne Airpark Airport
Metric (Imperial)
Date Time (edt) Wind (kph) Vis. (km) Weather Sky Cond. Temperature (ºC) Relative Humidity Wind Chill (°C) Heat Index (°C) Pressure Precipitation (cm)
Air Dwpt 6 hour altimeter (cm) sea level (mb) 1 hr 3 hr 6 hr
Max. Min.
04 05:54 Calm 12.87 Fair CLR 21.7 21.1 96% 76.2 1014.2
04 04:54 SW 6 16.09 Fair CLR 22.2 21.1 94% 76.2 1014.3
04 03:54 S 6 12.87 A Few Clouds FEW110 21.7 21.1 96% 76.2 1014.4
04 02:54 Calm 16.09 Fair CLR 22.2 21.1 94% 76.25 1014.8
04 01:54 SE 6 16.09 Fair CLR 22.2 21.7 31.1 22.2 97% 76.25 1015.1
04 00:54 Calm 16.09 Fair CLR 23.9 21.7 88% 24 76.28 1015.0
03 23:54 SW 6 16.09 Fair CLR 22.8 21.7 94% 76.25 1014.8
03 22:54 S 6 16.09 Fair CLR 23.3 22.2 94% 76.25 1015.0
03 21:54 Calm 16.09 Fair CLR 24.4 22.8 91% 24 76.25 1014.9
03 20:54 Calm 16.09 Fair CLR 26.7 22.2 76% 29 76.25 1015.0
03 19:54 NW 7 16.09 Fair CLR 31.1 21.1 35 31.1 55% 34 76.23 1014.4
03 18:54 W 13 16.09 Fair CLR 32.8 20.6 49% 36 76.2 1014.2
03 17:54 W 15 16.09 A Few Clouds FEW065 33.3 20.6 47% 36 76.15 1013.7
03 16:54 W 17 16.09 Partly Cloudy FEW060 SCT080 34.4 20.6 44% 37 76.12 1013.2
03 15:54 W 19 16.09 Partly Cloudy SCT060 35 20.6 43% 38 76.2 1014.2
03 14:54 W 9 16.09 Partly Cloudy SCT050 33.9 21.7 49% 38 76.25 1014.9
03 13:54 Vrbl 11 16.09 A Few Clouds FEW049 33.9 21.7 33.9 23.9 49% 38 76.3 1015.3
03 12:54 W 15 16.09 Fair CLR 33.3 22.2 52% 38 76.33 1015.8
03 11:54 NW 13 16.09 Fair CLR 32.2 22.2 56% 36 76.35 1016.3
03 10:54 W 13 16.09 Fair CLR 31.1 22.2 59% 35 76.35 1016.3
03 09:54 Calm 16.09 Fair CLR 29.4 22.2 65% 33 76.35 1016.3
03 08:54 SW 11 16.09 Fair CLR 26.7 21.7 74% 29 76.4 1017.0
03 07:54 SW 6 16.09 Fair CLR 23.9 21.1 25 22.2 84% 24 76.4 1017.0
03 06:54 S 6 16.09 Fair CLR 22.8 20.6 87% 76.35 1016.2
03 05:54 SW 7 16.09 Fair CLR 22.8 21.1 90% 76.33 1015.9
03 03:54 Calm 16.09 A Few Clouds FEW100 23.9 21.1 84% 24 76.3 1015.8
03 02:54 Calm 16.09 Mostly Cloudy BKN090 25 21.1 79% 26 76.3 1015.6
03 01:54 SW 6 16.09 Fair CLR 24.4 21.1 28.9 24.4 82% 25 76.3 1015.6
03 00:54 SW 7 16.09 Fair CLR 24.4 21.1 82% 25 76.28 1015.4
02 23:54 SW 9 16.09 Fair CLR 24.4 21.1 82% 25 76.28 1015.3
02 22:54 Calm 16.09 Fair CLR 25.6 21.7 79% 27 76.3 1015.7
02 21:54 Calm 16.09 Fair CLR 26.1 21.7 77% 28 76.3 1015.9
02 20:54 SW 6 16.09 Fair CLR 26.7 22.8 79% 29 76.28 1015.5
02 19:54 S 6 16.09 Fair CLR 28.9 22.8 34.4 28.9 70% 32 76.25 1015.4
02 18:54 SW 11 16.09 Fair CLR 32.2 21.1 52% 35 76.28 1015.4
02 16:54 W 17 16.09 Fair CLR 33.9 20.6 46% 37 76.3 1015.6
02 15:54 Vrbl 9 16.09 Fair CLR 32.8 20.6 49% 36 76.33 1016.1
02 14:54 W 15 16.09 Partly Cloudy SCT050 32.8 21.1 50% 36 76.38 1016.6
02 13:54 SW 13 16.09 A Few Clouds FEW042 33.3 21.7 33.3 22.2 51% 37 76.4 1017.1
02 12:54 W 17 16.09 Fair CLR 32.2 21.7 54% 36 76.45 1017.5
02 11:54 SW 17 16.09 Fair CLR 31.1 22.2 59% 35 76.48 1017.9
02 10:54 W 13 3.22 Fair with Haze CLR 30 21.7 61% 33 76.48 1018.1
02 09:54 W 9 16.09 Fair CLR 28.3 21.7 67% 31 76.48 1018.2
02 08:54 SW 9 16.09 Fair CLR 25.6 21.7 79% 27 76.48 1018.2
02 06:54 S 7 16.09 Fair CLR 20.6 20 96% 76.43 1017.5
02 05:54 S 6 16.09 Fair CLR 21.7 20 90% 76.4 1017.2
02 04:54 Calm 16.09 Fair CLR 21.7 20.6 94% 76.4 1016.8
02 03:54 Calm 16.09 Fair CLR 21.7 20 90% 76.35 1016.4
02 02:54 Calm 16.09 Fair CLR 23.3 20.6 85% 76.35 1016.3
02 01:54 Calm 16.09 Fair CLR 23.3 20.6 28.3 22.2 85% 76.35 1016.4
02 00:54 Calm 16.09 Fair CLR 23.3 21.1 88% 76.38 1016.5
01 23:54 Calm 16.09 Fair CLR 24.4 21.1 82% 25 76.38 1016.5
01 22:54 Calm 16.09 Fair CLR 25.6 21.1 76% 27 76.35 1016.4
01 21:54 S 11 16.09 Fair CLR 25 22.2 85% 26 76.35 1016.5
01 20:54 Calm 16.09 Fair CLR 25.6 22.8 85% 27 76.33 1016.4
01 19:54 S 6 16.09 Fair CLR 28.3 23.3 33.3 28.3 74% 32 76.33 1016.5
01 18:54 S 9 16.09 A Few Clouds FEW055 31.1 22.8 61% 35 76.35 1016.5
01 17:54 SW 9 16.09 Fair CLR 32.8 21.7 52% 36 76.35 1016.3
01 16:54 SW 17 16.09 Fair CLR 33.3 20.6 47% 36 76.35 1016.3
01 15:54 SW 17 16.09 Fair CLR 33.3 22.2 52% 38 76.35 1016.3
01 14:54 S 17 16.09 Fair CLR 32.8 21.7 52% 36 76.4 1016.9
01 13:54 W 13 16.09 Fair CLR 32.8 21.1 32.8 21.1 50% 36 76.43 1017.4
01 12:54 W 19 G 30 16.09 Fair CLR 31.7 22.2 57% 36 76.48 1017.9
01 11:54 W 15 16.09 Fair CLR 30.6 22.2 61% 34 76.48 1018.2
01 10:54 W 17 16.09 Fair CLR 29.4 22.2 65% 33 76.48 1018.3
01 09:54 W 19 16.09 Fair CLR 27.2 21.7 72% 29 76.5 1018.4
01 08:54 SW 9 16.09 Mostly Cloudy BKN110 25.6 21.7 79% 27 76.5 1018.7
01 07:54 S 7 16.09 Partly Cloudy SCT110 21.1 20 23.3 21.1 93% 76.48 1018.6
01 06:54 SW 9 16.09 A Few Clouds FEW120 21.7 20 90% 76.43 1017.6
Date Time (edt) Wind (kph) Vis. (km) Weather Sky Cond. Air Dwpt Max. Min. Relative Humidity Wind Chill (°C) Heat Index (°C) altimeter (cm) sea level (mb) 1 hr 3 hr 6 hr
6 hour
Temperature (ºC) Pressure Precipitation (cm)